Alan T — WDC9571 — position and weather

sailwx.info

Track history (hours):
 
Tides and Currents Weather Stations Pressure Air Temp Water Temp Dewpoint Dewpoint Depression Visibility Wind Speed Wind Dir Waves Ship Positions

Alan T

Owner: SO CAL SHIP SERVICES, INC, TERMINAL ISLAND, CA. More information available from US FCC via Universal Licensing System and Coast Guard Vessel Documentation Center.

Last reported at 2018-May-22 04:06 UTC. Time now 2018-May-22 10:10 UTC.
Position N 34°14' W 119°16'.

; draft 2.5 m.

Type: Ship (hazmat cat B). MMSI: 367104060.

Date/timePositionNaut miles runAvg speedWind from/ knotsBaromVisibWave heightAir tempDewpointWater temp
2018-May-22 04:06N 34°14' W 119°16'0 0.1
2018-May-22 04:00N 34°14' W 119°16'1 1.2
2018-May-22 03:30N 34°15' W 119°16'816.1
2018-May-22 03:00N 34°19' W 119°25'612.7
2018-May-22 02:30N 34°23' W 119°31'611.5
2018-May-22 02:01N 34°20' W 119°37'612.1
2018-May-22 01:30N 34°23' W 119°30'0 0.0
2018-May-22 01:00N 34°23' W 119°30'510.4
2018-May-22 00:30N 34°20' W 119°35'3 5.2
2018-May-22 00:00N 34°17' W 119°35'2 3.2
2018-May-21 23:30N 34°18' W 119°34'510.2
2018-May-21 22:58N 34°23' W 119°30'510.6
2018-May-21 22:30N 34°20' W 119°35'3 5.3
2018-May-21 21:59N 34°17' W 119°35'3 6.5
2018-May-21 21:30N 34°20' W 119°37'1 1.5
2018-May-21 21:00N 34°20' W 119°36'611.7
2018-May-21 20:30N 34°24' W 119°41'0 0.1
2018-May-21 19:59N 34°24' W 119°42'0 0.0
2018-May-21 19:30N 34°24' W 119°42'0 0.3
2018-May-21 18:58N 34°24' W 119°41'612.7
2018-May-21 18:30N 34°20' W 119°36'1 2.7
2018-May-21 18:00N 34°20' W 119°38'1 2.5
2018-May-21 17:30N 34°20' W 119°36'1 2.6
2018-May-21 17:00N 34°20' W 119°35'5 9.3
2018-May-21 16:29N 34°23' W 119°30'0 0.0
2018-May-21 15:58N 34°23' W 119°30'612.4
2018-May-21 15:30N 34°20' W 119°36'2 3.9
2018-May-21 15:00N 34°18' W 119°36'2 4.9
2018-May-21 14:30N 34°20' W 119°37'1 1.8
2018-May-21 14:00N 34°20' W 119°36'611.4
2018-May-21 13:30N 34°23' W 119°30'0 0.0
2018-May-21 13:00N 34°23' W 119°30'1 1.5
2018-May-21 12:30N 34°22' W 119°30'0 0.0
2018-May-21 11:59N 34°22' W 119°30'0 0.0
2018-May-21 11:30N 34°23' W 119°30'0 0.0
2018-May-21 11:00N 34°22' W 119°30'0 0.0
2018-May-21 10:26N 34°22' W 119°30'0 0.0
2018-May-21 09:58N 34°23' W 119°30'0 0.0
2018-May-21 09:30N 34°23' W 119°30'0 0.0
2018-May-21 09:00N 34°23' W 119°30'0 0.0
2018-May-21 08:29N 34°23' W 119°30'0 0.0
2018-May-21 08:00N 34°23' W 119°30'0 0.0
2018-May-21 07:29N 34°23' W 119°30'0 0.0
2018-May-21 07:00N 34°23' W 119°30'0 0.0
2018-May-21 06:29N 34°23' W 119°30'0 0.0
2018-May-21 06:00N 34°23' W 119°30'0 0.0
2018-May-21 05:30N 34°23' W 119°30'0 0.0
2018-May-21 05:00N 34°22' W 119°30'0 0.0
2018-May-21 04:30N 34°23' W 119°30'0 0.0
2018-May-21 04:00N 34°22' W 119°30'0 0.0
2018-May-21 03:30N 34°23' W 119°30'0 0.0
2018-May-21 03:01N 34°22' W 119°30'0 0.0
2018-May-21 02:29N 34°22' W 119°30'3 6.0
2018-May-21 02:00N 34°21' W 119°32'2 4.4
2018-May-21 01:29N 34°20' W 119°35'3 5.8
2018-May-21 01:00N 34°21' W 119°32'1 1.0
2018-May-21 00:29N 34°21' W 119°33'3 6.0
2018-May-20 23:58N 34°20' W 119°36'0 0.0
2018-May-20 23:29N 34°20' W 119°36'0 0.0
2018-May-20 22:58N 34°20' W 119°36'0 0.0
2018-May-20 22:30N 34°20' W 119°36'0 0.3
2018-May-20 22:00N 34°20' W 119°36'2 4.1
2018-May-20 21:29N 34°20' W 119°34'0 0.0
2018-May-20 21:00N 34°20' W 119°34'2 4.9
2018-May-20 20:31N 34°20' W 119°37'0 0.3
2018-May-20 20:00N 34°20' W 119°37'0 0.0
2018-May-20 19:30N 34°20' W 119°37'0 0.8
2018-May-20 19:00N 34°20' W 119°37'0 0.0
2018-May-20 18:29N 34°20' W 119°37'0 0.1
2018-May-20 18:00N 34°20' W 119°37'0 0.0
2018-May-20 17:29N 34°20' W 119°37'0 0.0
2018-May-20 17:00N 34°20' W 119°37'0 0.0
2018-May-20 16:30N 34°20' W 119°37'510.7
2018-May-20 16:00N 34°20' W 119°31'0 0.4
2018-May-20 15:30N 34°20' W 119°31'2 3.3
2018-May-20 15:00N 34°22' W 119°32'2 4.3
2018-May-20 14:30N 34°20' W 119°33'3 6.7
2018-May-20 14:01N 34°20' W 119°37'611.9
2018-May-20 13:30N 34°23' W 119°31'0 0.9
2018-May-20 12:57N 34°23' W 119°31'1 1.4
2018-May-20 12:29N 34°22' W 119°30'0 0.0
2018-May-20 11:58N 34°23' W 119°30'0 0.0
2018-May-20 11:29N 34°23' W 119°30'0 0.0
2018-May-20 11:00N 34°23' W 119°30'0 0.0
2018-May-20 10:28N 34°23' W 119°30'0 0.0
2018-May-20 10:00N 34°22' W 119°30'0 0.0
2018-May-20 09:30N 34°22' W 119°30'0 0.0
2018-May-20 09:00N 34°23' W 119°30'0 0.0
2018-May-20 08:28N 34°23' W 119°30'0 0.0
2018-May-20 08:00N 34°23' W 119°30'0 0.0
2018-May-20 07:30N 34°23' W 119°30'0 0.0
2018-May-20 07:00N 34°23' W 119°30'0 0.0
2018-May-20 06:30N 34°23' W 119°30'0 0.0
2018-May-20 05:58N 34°22' W 119°30'0 0.0
2018-May-20 05:29N 34°22' W 119°30'0 0.0
2018-May-20 04:54N 34°23' W 119°30'0 0.0
2018-May-20 04:27N 34°23' W 119°30'0 0.0
2018-May-20 03:59N 34°23' W 119°30'0 0.0
2018-May-20 03:30N 34°23' W 119°30'0 0.0
2018-May-20 02:57N 34°22' W 119°30'4 9.2
2018-May-20 02:29N 34°20' W 119°34'3 5.5
2018-May-20 02:00N 34°20' W 119°37'1 1.9
2018-May-20 01:30N 34°20' W 119°36'510.6
2018-May-20 01:00N 34°23' W 119°31'4 8.3
2018-May-20 00:30N 34°20' W 119°35'1 2.7
2018-May-19 23:58N 34°20' W 119°36'0 0.0
2018-May-19 23:30N 34°20' W 119°36'0 0.0
2018-May-19 23:00N 34°20' W 119°36'0 0.0
2018-May-19 22:26N 34°20' W 119°36'0 0.0
2018-May-19 21:58N 34°20' W 119°36'0 0.0
2018-May-19 21:30N 34°20' W 119°36'0 0.0
2018-May-19 21:00N 34°20' W 119°36'3 6.0
2018-May-19 20:30N 34°23' W 119°37'4 7.7
2018-May-19 20:01N 34°24' W 119°42'0 0.0
2018-May-19 19:30N 34°24' W 119°42'0 0.0
2018-May-19 18:57N 34°24' W 119°42'0 0.0
2018-May-19 18:30N 34°24' W 119°42'5 9.6
2018-May-19 18:00N 34°21' W 119°37'1 3.0
2018-May-19 17:30N 34°20' W 119°36'0 0.0
2018-May-19 16:59N 34°20' W 119°36'0 0.0
2018-May-19 16:30N 34°20' W 119°36'0 0.0
2018-May-19 15:59N 34°20' W 119°36'0 0.9
2018-May-19 15:29N 34°20' W 119°37'612.4
2018-May-19 15:00N 34°23' W 119°31'610.9
2018-May-19 14:30N 34°20' W 119°36'0 0.2
2018-May-19 13:59N 34°20' W 119°36'612.0
2018-May-19 13:30N 34°23' W 119°30'0 0.7
2018-May-19 12:59N 34°23' W 119°31'1 1.5
2018-May-19 12:26N 34°22' W 119°30'0 0.0
2018-May-19 11:57N 34°22' W 119°30'0 0.0
2018-May-19 11:29N 34°22' W 119°30'0 0.0
2018-May-19 10:57N 34°22' W 119°30'0 0.0
2018-May-19 10:29N 34°22' W 119°30'0 0.0
2018-May-19 09:59N 34°22' W 119°30'0 0.0
2018-May-19 09:29N 34°22' W 119°30'0 0.0
2018-May-19 08:58N 34°22' W 119°30'0 0.0
2018-May-19 08:23N 34°22' W 119°30'0 0.0
2018-May-19 08:00N 34°22' W 119°30'0 0.0
2018-May-19 07:27N 34°22' W 119°30'0 0.0
2018-May-19 06:58N 34°22' W 119°30'0 0.0
2018-May-19 06:30N 34°22' W 119°30'0 0.0
2018-May-19 05:58N 34°22' W 119°30'0 0.0
2018-May-19 05:28N 34°22' W 119°30'0 0.0
2018-May-19 04:59N 34°22' W 119°30'0 0.0
2018-May-19 04:30N 34°22' W 119°30'0 0.0
2018-May-19 03:58N 34°22' W 119°30'0 0.0
2018-May-19 03:30N 34°22' W 119°30'0 0.0
2018-May-19 02:59N 34°22' W 119°30'0 0.0
2018-May-19 02:29N 34°22' W 119°30'3 6.9
2018-May-19 02:00N 34°20' W 119°33'4 8.4
2018-May-19 01:30N 34°20' W 119°38'714.0
2018-May-19 01:00N 34°23' W 119°31'1 1.4
2018-May-19 00:28N 34°23' W 119°30'0 0.0
2018-May-19 00:00N 34°23' W 119°30'0 0.0
2018-May-18 23:29N 34°23' W 119°30'0 0.1
2018-May-18 23:00N 34°23' W 119°30'2 3.4
2018-May-18 22:28N 34°22' W 119°32'510.0
2018-May-18 21:59N 34°20' W 119°37'1 2.0
2018-May-18 21:30N 34°20' W 119°36'0 0.0
2018-May-18 21:00N 34°20' W 119°36'0 0.0
2018-May-18 20:30N 34°20' W 119°36'4 7.5
2018-May-18 20:00N 34°21' W 119°32'1 1.4
2018-May-18 19:30N 34°22' W 119°32'5 9.8
2018-May-18 19:00N 34°20' W 119°37'1 1.5
2018-May-18 18:29N 34°20' W 119°38'0 0.0
2018-May-18 18:00N 34°20' W 119°38'0 0.0
2018-May-18 17:30N 34°20' W 119°38'0 0.1
2018-May-18 17:00N 34°20' W 119°38'0 0.9
2018-May-18 16:29N 34°20' W 119°37'1 2.1
2018-May-18 15:58N 34°20' W 119°36'610.1
2018-May-18 15:25N 34°23' W 119°30'1 2.6
2018-May-18 14:59N 34°22' W 119°31'4 9.0
2018-May-18 14:30N 34°20' W 119°36'1 1.1
2018-May-18 14:00N 34°20' W 119°37'610.9
2018-May-18 13:28N 34°23' W 119°30'0 0.0
2018-May-18 12:57N 34°23' W 119°30'1 1.4
2018-May-18 12:27N 34°23' W 119°30'0 0.0
2018-May-18 11:59N 34°23' W 119°30'0 0.0
2018-May-18 11:30N 34°23' W 119°30'0 0.0
2018-May-18 11:00N 34°23' W 119°30'1 1.4
2018-May-18 10:30N 34°23' W 119°31'611.5
2018-May-18 10:00N 34°20' W 119°37'0 0.8
2018-May-18 09:30N 34°20' W 119°36'0 0.0
2018-May-18 08:58N 34°20' W 119°36'0 0.0
2018-May-18 08:29N 34°20' W 119°36'0 0.0
2018-May-18 08:00N 34°20' W 119°36'0 0.0
2018-May-18 07:30N 34°20' W 119°36'0 0.0
2018-May-18 06:59N 34°20' W 119°36'0 0.0
2018-May-18 06:30N 34°20' W 119°36'0 0.1
2018-May-18 05:58N 34°20' W 119°36'0 0.0
2018-May-18 05:29N 34°20' W 119°36'0 0.0
2018-May-18 05:00N 34°20' W 119°36'0 0.0
2018-May-18 04:30N 34°20' W 119°36'0 0.0
2018-May-18 04:00N 34°20' W 119°36'0 0.0
2018-May-18 03:26N 34°20' W 119°36'1 3.4
2018-May-18 03:00N 34°20' W 119°34'2 4.6
2018-May-18 02:29N 34°21' W 119°32'4 8.5
2018-May-18 02:00N 34°20' W 119°37'511.0
2018-May-18 01:30N 34°22' W 119°31'0 1.0
2018-May-18 01:01N 34°23' W 119°31'1 1.6
2018-May-18 00:29N 34°23' W 119°30'0 0.0
2018-May-17 23:58N 34°23' W 119°30'1 1.5
2018-May-17 23:28N 34°23' W 119°30'0 0.0
2018-May-17 22:55N 34°23' W 119°30'410.8
2018-May-17 22:30N 34°20' W 119°35'2 3.9
2018-May-17 22:00N 34°20' W 119°37'1 1.5
2018-May-17 21:30N 34°20' W 119°38'0 0.7
2018-May-17 20:58N 34°20' W 119°37'0 1.0
2018-May-17 20:31N 34°20' W 119°37'0 0.2
2018-May-17 20:00N 34°20' W 119°37'0 0.9
2018-May-17 19:31N 34°20' W 119°37'0 0.0
2018-May-17 19:00N 34°20' W 119°37'4 7.5
2018-May-17 18:30N 34°20' W 119°33'1 1.4
2018-May-17 18:00N 34°20' W 119°34'2 4.3
2018-May-17 17:30N 34°20' W 119°36'1 2.8
2018-May-17 17:00N 34°20' W 119°38'3 6.9
2018-May-17 16:30N 34°20' W 119°34'3 5.9
2018-May-17 16:00N 34°22' W 119°31'1 2.0
2018-May-17 15:27N 34°23' W 119°30'0 0.0
2018-May-17 14:59N 34°23' W 119°30'612.5
2018-May-17 14:30N 34°20' W 119°36'0 0.5
2018-May-17 13:58N 34°20' W 119°36'612.0
2018-May-17 13:30N 34°23' W 119°30'0 0.8
2018-May-17 13:00N 34°23' W 119°31'0 0.6
2018-May-17 12:30N 34°23' W 119°31'611.6
2018-May-17 12:00N 34°20' W 119°36'2 3.8
2018-May-17 11:26N 34°20' W 119°34'0 0.0
2018-May-17 11:00N 34°20' W 119°34'0 0.0
2018-May-17 10:30N 34°20' W 119°34'0 0.0
2018-May-17 10:00N 34°20' W 119°34'0 0.0
2018-May-17 09:26N 34°20' W 119°34'0 0.0
2018-May-17 08:59N 34°20' W 119°34'0 0.0
2018-May-17 08:29N 34°20' W 119°34'0 0.0
2018-May-17 07:59N 34°20' W 119°34'0 0.0
2018-May-17 07:30N 34°20' W 119°34'0 0.0
2018-May-17 07:00N 34°20' W 119°34'0 0.0
2018-May-17 06:30N 34°20' W 119°34'0 0.0
2018-May-17 05:59N 34°20' W 119°34'3 7.2
2018-May-17 05:30N 34°20' W 119°38'1 1.9
2018-May-17 05:00N 34°20' W 119°37'0 0.9
2018-May-17 04:30N 34°20' W 119°37'0 0.9
2018-May-17 04:00N 34°20' W 119°38'3 6.9
2018-May-17 03:30N 34°20' W 119°34'4 7.8
2018-May-17 03:00N 34°23' W 119°31'611.1
2018-May-17 02:30N 34°20' W 119°36'0 0.1
2018-May-17 01:58N 34°20' W 119°36'511.4
2018-May-17 01:30N 34°23' W 119°31'0 0.1
2018-May-17 01:00N 34°23' W 119°31'1 1.4
2018-May-17 00:30N 34°22' W 119°30'0 0.0
2018-May-17 00:00N 34°22' W 119°30'1 1.5
2018-May-16 23:30N 34°23' W 119°30'1 1.2
2018-May-16 23:00N 34°23' W 119°31'611.2
2018-May-16 22:31N 34°20' W 119°37'2 4.6
2018-May-16 21:59N 34°18' W 119°36'2 4.5
2018-May-16 21:29N 34°20' W 119°36'612.6
2018-May-16 21:00N 34°24' W 119°41'0 0.2
2018-May-16 20:29N 34°24' W 119°42'0 0.0
2018-May-16 20:00N 34°24' W 119°42'4 8.1
2018-May-16 19:30N 34°22' W 119°37'2 4.9
2018-May-16 19:00N 34°20' W 119°37'0 0.3
2018-May-16 18:28N 34°20' W 119°37'0 0.0
2018-May-16 18:01N 34°20' W 119°37'1 1.8
2018-May-16 17:30N 34°20' W 119°38'0 0.0
2018-May-16 17:00N 34°20' W 119°38'0 0.9
2018-May-16 16:30N 34°20' W 119°37'0 0.9
2018-May-16 16:00N 34°20' W 119°38'3 5.7
2018-May-16 15:30N 34°20' W 119°34'2 4.1
2018-May-16 15:01N 34°21' W 119°32'4 7.1
2018-May-16 14:30N 34°19' W 119°36'1 1.4
2018-May-16 14:00N 34°20' W 119°36'610.4
2018-May-16 13:27N 34°23' W 119°30'0 0.0
2018-May-16 12:56N 34°23' W 119°30'1 1.7
2018-May-16 12:30N 34°22' W 119°30'0 0.0
2018-May-16 12:00N 34°22' W 119°30'0 0.0
2018-May-16 11:30N 34°22' W 119°30'0 0.0
2018-May-16 11:00N 34°22' W 119°30'0 0.0
2018-May-16 10:30N 34°22' W 119°30'0 0.0
2018-May-16 09:59N 34°22' W 119°30'0 0.0
2018-May-16 09:30N 34°22' W 119°30'0 0.0
2018-May-16 08:54N 34°23' W 119°30'0 0.0
2018-May-16 08:29N 34°22' W 119°30'0 0.0
2018-May-16 08:00N 34°22' W 119°30'0 0.0
2018-May-16 07:29N 34°22' W 119°30'0 0.0
2018-May-16 07:00N 34°22' W 119°30'0 0.0
2018-May-16 06:31N 34°22' W 119°30'0 0.0
2018-May-16 06:00N 34°22' W 119°30'0 0.0
2018-May-16 05:29N 34°22' W 119°30'0 0.0
2018-May-16 04:57N 34°22' W 119°30'0 0.0
2018-May-16 04:28N 34°22' W 119°30'0 0.0
2018-May-16 03:52N 34°22' W 119°30'0 0.0
2018-May-16 03:30N 34°22' W 119°30'0 0.0
2018-May-16 02:57N 34°22' W 119°30'1 2.9
2018-May-16 02:30N 34°22' W 119°31'511.1
2018-May-16 02:00N 34°20' W 119°38'712.8
2018-May-16 01:29N 34°23' W 119°30'0 0.0
2018-May-16 01:00N 34°23' W 119°30'0 0.2
2018-May-16 00:27N 34°23' W 119°31'0 0.7
2018-May-16 00:00N 34°23' W 119°31'0 0.3
2018-May-15 23:27N 34°23' W 119°31'0 0.8
2018-May-15 22:59N 34°23' W 119°30'612.2
2018-May-15 22:30N 34°20' W 119°36'0 0.4
2018-May-15 22:00N 34°20' W 119°36'1 2.9
2018-May-15 21:31N 34°20' W 119°38'1 2.7
2018-May-15 21:00N 34°20' W 119°36'5 9.9
2018-May-15 20:29N 34°22' W 119°31'1 1.4
2018-May-15 19:58N 34°23' W 119°30'0 0.0
2018-May-15 19:29N 34°23' W 119°30'0 0.6
2018-May-15 19:00N 34°23' W 119°30'2 4.2
2018-May-15 18:30N 34°21' W 119°32'4 7.0
2018-May-15 17:57N 34°20' W 119°36'1 2.4
2018-May-15 17:30N 34°20' W 119°38'3 6.5
2018-May-15 17:00N 34°17' W 119°35'4 7.1
2018-May-15 16:30N 34°20' W 119°33'0 0.7
2018-May-15 15:58N 34°20' W 119°33'3 7.2
2018-May-15 15:30N 34°23' W 119°30'3 6.6
2018-May-15 15:00N 34°20' W 119°33'3 6.2
2018-May-15 14:31N 34°19' W 119°36'1 1.9
2018-May-15 13:58N 34°20' W 119°36'512.0
2018-May-15 13:30N 34°23' W 119°31'0 0.7
2018-May-15 13:00N 34°23' W 119°31'0 0.9
2018-May-15 12:31N 34°23' W 119°30'713.0
2018-May-15 12:00N 34°20' W 119°38'3 6.4
2018-May-15 11:30N 34°20' W 119°34'0 0.0
2018-May-15 11:00N 34°20' W 119°34'0 0.0
2018-May-15 10:30N 34°20' W 119°34'0 0.0
2018-May-15 10:00N 34°20' W 119°34'0 0.0
2018-May-15 09:29N 34°20' W 119°34'0 0.0
2018-May-15 08:59N 34°20' W 119°34'0 0.0
2018-May-15 08:30N 34°20' W 119°34'0 0.0
2018-May-15 08:00N 34°20' W 119°34'0 0.0
2018-May-15 07:30N 34°20' W 119°34'0 0.0
2018-May-15 06:59N 34°20' W 119°34'0 0.0
2018-May-15 06:27N 34°20' W 119°34'0 0.0
2018-May-15 06:01N 34°20' W 119°34'0 0.0
2018-May-15 05:29N 34°20' W 119°34'0 0.0
2018-May-15 05:01N 34°20' W 119°34'0 0.0
2018-May-15 04:28N 34°20' W 119°34'0 0.0
2018-May-15 04:00N 34°20' W 119°34'0 0.0
2018-May-15 03:29N 34°20' W 119°34'2 4.7
2018-May-15 03:00N 34°20' W 119°37'510.0
2018-May-15 02:30N 34°22' W 119°31'612.4
2018-May-15 02:00N 34°20' W 119°38'713.9
2018-May-15 01:30N 34°23' W 119°30'1 1.5
2018-May-15 01:00N 34°22' W 119°30'0 0.0
2018-May-15 00:28N 34°23' W 119°30'0 0.0
2018-May-15 00:00N 34°23' W 119°30'0 0.0
2018-May-14 23:30N 34°23' W 119°30'1 1.4
2018-May-14 22:58N 34°23' W 119°30'511.6
2018-May-14 22:30N 34°20' W 119°36'1 1.8
2018-May-14 22:00N 34°20' W 119°35'1 1.5
2018-May-14 21:30N 34°20' W 119°34'1 0.9
2018-May-14 20:58N 34°20' W 119°34'1 1.9
2018-May-14 20:30N 34°20' W 119°35'2 4.1
2018-May-14 20:00N 34°20' W 119°37'4 8.8
2018-May-14 19:30N 34°24' W 119°40'1 2.7
2018-May-14 19:00N 34°24' W 119°42'0 0.0
2018-May-14 18:29N 34°24' W 119°42'2 4.8
2018-May-14 18:00N 34°24' W 119°39'4 8.8
2018-May-14 17:30N 34°20' W 119°36'3 4.7
2018-May-14 16:55N 34°17' W 119°35'3 7.2
2018-May-14 16:30N 34°20' W 119°37'0 0.6
2018-May-14 16:01N 34°20' W 119°36'611.4
2018-May-14 15:30N 34°23' W 119°30'3 6.9
2018-May-14 15:00N 34°20' W 119°33'3 6.2
2018-May-14 14:30N 34°18' W 119°36'2 3.4
2018-May-14 14:00N 34°20' W 119°36'611.5
2018-May-14 13:30N 34°23' W 119°30'0 0.9
2018-May-14 13:00N 34°23' W 119°31'1 1.7
2018-May-14 12:30N 34°23' W 119°30'0 0.0
2018-May-14 11:53N 34°23' W 119°30'0 0.0
2018-May-14 11:29N 34°22' W 119°30'0 0.0
2018-May-14 10:59N 34°22' W 119°30'0 0.0
2018-May-14 10:29N 34°23' W 119°30'0 0.0
2018-May-14 09:58N 34°22' W 119°30'0 0.0
2018-May-14 09:29N 34°22' W 119°30'0 0.0
2018-May-14 09:00N 34°22' W 119°30'0 0.0
2018-May-14 08:28N 34°22' W 119°30'1 1.7
2018-May-14 07:59N 34°23' W 119°31'510.7
2018-May-14 07:30N 34°20' W 119°36'611.5
2018-May-14 07:00N 34°22' W 119°30'0 0.0
2018-May-14 06:26N 34°22' W 119°30'0 0.0
2018-May-14 05:57N 34°22' W 119°30'0 0.0
2018-May-14 05:27N 34°22' W 119°30'0 0.0
2018-May-14 04:59N 34°22' W 119°30'0 0.0
2018-May-14 04:30N 34°22' W 119°30'0 0.0
2018-May-14 04:00N 34°22' W 119°30'0 0.0
2018-May-14 03:30N 34°22' W 119°30'0 0.0
2018-May-14 02:58N 34°22' W 119°30'0 0.1
2018-May-14 02:30N 34°22' W 119°30'612.0
2018-May-14 02:00N 34°20' W 119°36'611.1
2018-May-14 01:30N 34°23' W 119°31'2 3.2
2018-May-14 01:00N 34°22' W 119°32'2 3.2
2018-May-14 00:29N 34°20' W 119°33'3 5.4
2018-May-14 00:00N 34°20' W 119°36'2 4.7
2018-May-13 23:29N 34°20' W 119°33'1 1.8
2018-May-13 22:58N 34°20' W 119°34'1 1.9
2018-May-13 22:30N 34°20' W 119°35'2 3.2
2018-May-13 22:00N 34°20' W 119°37'1 1.8
2018-May-13 21:30N 34°20' W 119°36'2 4.2
2018-May-13 21:00N 34°20' W 119°34'0 0.0
2018-May-13 20:30N 34°20' W 119°34'0 0.0
2018-May-13 19:58N 34°20' W 119°34'0 0.0
2018-May-13 19:30N 34°20' W 119°34'0 0.0
2018-May-13 18:59N 34°20' W 119°34'0 0.0
2018-May-13 18:30N 34°20' W 119°34'0 0.0
2018-May-13 17:59N 34°20' W 119°34'0 0.0
2018-May-13 17:29N 34°20' W 119°34'0 0.0
2018-May-13 17:00N 34°20' W 119°34'0 0.0
2018-May-13 16:28N 34°20' W 119°34'2 3.6
2018-May-13 16:00N 34°20' W 119°36'814.9
2018-May-13 15:29N 34°21' W 119°26'5 9.9
2018-May-13 15:00N 34°21' W 119°32'2 3.0
2018-May-13 14:30N 34°20' W 119°34'4 7.2
2018-May-13 14:00N 34°20' W 119°38'611.8
2018-May-13 13:30N 34°22' W 119°31'1 1.9
2018-May-13 13:00N 34°23' W 119°31'1 1.2
2018-May-13 12:29N 34°23' W 119°30'0 0.0
2018-May-13 11:59N 34°22' W 119°30'1 1.5
2018-May-13 11:30N 34°23' W 119°31'1 1.4
2018-May-13 10:58N 34°23' W 119°30'0 0.0
2018-May-13 10:30N 34°23' W 119°30'0 0.0
2018-May-13 10:00N 34°23' W 119°30'0 0.0
2018-May-13 09:30N 34°23' W 119°30'0 0.0
2018-May-13 08:57N 34°23' W 119°30'0 0.0
2018-May-13 08:24N 34°23' W 119°30'0 0.0
2018-May-13 08:00N 34°23' W 119°30'0 0.0
2018-May-13 07:30N 34°23' W 119°30'0 0.0
2018-May-13 06:58N 34°23' W 119°30'0 0.0
2018-May-13 06:26N 34°23' W 119°30'0 0.0
2018-May-13 06:00N 34°23' W 119°30'0 0.0
2018-May-13 05:28N 34°23' W 119°30'0 0.0
2018-May-13 05:00N 34°23' W 119°30'0 0.0
2018-May-13 04:30N 34°23' W 119°30'0 0.0
2018-May-13 03:59N 34°23' W 119°30'0 0.0
2018-May-13 03:27N 34°23' W 119°30'0 0.0
2018-May-13 02:59N 34°23' W 119°30'0 0.0
2018-May-13 02:30N 34°23' W 119°30'4 7.5
2018-May-13 01:59N 34°20' W 119°34'3 6.9
2018-May-13 01:30N 34°20' W 119°38'4 7.5
2018-May-13 01:00N 34°20' W 119°33'3 6.2
2018-May-13 00:29N 34°23' W 119°31'0 0.7
2018-May-13 00:00N 34°23' W 119°30'3 6.7
2018-May-12 23:30N 34°20' W 119°33'3 5.8
2018-May-12 23:00N 34°20' W 119°36'2 4.0
2018-May-12 22:30N 34°20' W 119°34'3 6.9
2018-May-12 22:00N 34°20' W 119°38'2 4.7
2018-May-12 21:30N 34°22' W 119°37'4 7.9
2018-May-12 20:57N 34°24' W 119°42'0 0.0
2018-May-12 20:29N 34°24' W 119°42'0 0.0
2018-May-12 19:44N 34°24' W 119°42'0 0.0
2018-May-12 19:30N 34°24' W 119°42'0 1.0
2018-May-12 19:00N 34°24' W 119°41'713.9
2018-May-12 18:30N 34°20' W 119°34'0 0.4
2018-May-12 18:00N 34°20' W 119°34'0 0.0
2018-May-12 17:28N 34°20' W 119°34'0 0.0
2018-May-12 17:00N 34°20' W 119°34'0 0.0
2018-May-12 16:28N 34°20' W 119°34'0 0.0
2018-May-12 16:00N 34°20' W 119°34'0 0.0
2018-May-12 15:30N 34°20' W 119°34'2 4.2
2018-May-12 15:00N 34°20' W 119°36'1 1.8
2018-May-12 14:30N 34°20' W 119°37'0 0.9
2018-May-12 14:00N 34°20' W 119°38'612.6
2018-May-12 13:30N 34°22' W 119°31'0 0.6
2018-May-12 12:57N 34°23' W 119°31'1 1.6
2018-May-12 12:28N 34°22' W 119°30'0 0.0
2018-May-12 12:00N 34°22' W 119°30'0 0.0
2018-May-12 11:28N 34°22' W 119°30'0 0.0
2018-May-12 10:59N 34°22' W 119°30'0 0.0
2018-May-12 10:30N 34°22' W 119°30'0 0.0
2018-May-12 09:58N 34°22' W 119°30'0 0.0
2018-May-12 09:30N 34°22' W 119°30'0 0.0
2018-May-12 09:00N 34°22' W 119°30'0 0.0
2018-May-12 08:23N 34°22' W 119°30'0 0.0
2018-May-12 08:00N 34°22' W 119°30'0 0.0
2018-May-12 07:29N 34°22' W 119°30'0 0.0
2018-May-12 07:00N 34°22' W 119°30'0 0.0
2018-May-12 06:29N 34°22' W 119°30'0 0.0
2018-May-12 05:59N 34°22' W 119°30'0 0.0
2018-May-12 05:28N 34°22' W 119°30'0 0.0
2018-May-12 04:59N 34°22' W 119°30'0 0.0
2018-May-12 04:29N 34°22' W 119°30'  
Track history (hours):
 
Tides and Currents Weather Stations Pressure Air Temp Water Temp Dewpoint Dewpoint Depression Visibility Wind Speed Wind Dir Waves Ship Positions

Alan T

Owner: SO CAL SHIP SERVICES, INC, TERMINAL ISLAND, CA. More information available from US FCC via Universal Licensing System and Coast Guard Vessel Documentation Center.

Last reported at 2018-May-22 04:06 UTC. Time now 2018-May-22 10:10 UTC.
Position N 34°14' W 119°16'.

; draft 2.5 m.

Type: Ship (hazmat cat B). MMSI: 367104060.

Date/timePositionNaut miles runAvg speedWind from/ knotsBaromVisibWave heightAir tempDewpointWater temp
2018-May-22 04:06N 34°14' W 119°16'0 0.1
2018-May-22 04:00N 34°14' W 119°16'1 1.2
2018-May-22 03:30N 34°15' W 119°16'816.1
2018-May-22 03:00N 34°19' W 119°25'612.7
2018-May-22 02:30N 34°23' W 119°31'611.5
2018-May-22 02:01N 34°20' W 119°37'612.1
2018-May-22 01:30N 34°23' W 119°30'0 0.0
2018-May-22 01:00N 34°23' W 119°30'510.4
2018-May-22 00:30N 34°20' W 119°35'3 5.2
2018-May-22 00:00N 34°17' W 119°35'2 3.2
2018-May-21 23:30N 34°18' W 119°34'510.2
2018-May-21 22:58N 34°23' W 119°30'510.6
2018-May-21 22:30N 34°20' W 119°35'3 5.3
2018-May-21 21:59N 34°17' W 119°35'3 6.5
2018-May-21 21:30N 34°20' W 119°37'1 1.5
2018-May-21 21:00N 34°20' W 119°36'611.7
2018-May-21 20:30N 34°24' W 119°41'0 0.1
2018-May-21 19:59N 34°24' W 119°42'0 0.0
2018-May-21 19:30N 34°24' W 119°42'0 0.3
2018-May-21 18:58N 34°24' W 119°41'612.7
2018-May-21 18:30N 34°20' W 119°36'1 2.7
2018-May-21 18:00N 34°20' W 119°38'1 2.5
2018-May-21 17:30N 34°20' W 119°36'1 2.6
2018-May-21 17:00N 34°20' W 119°35'5 9.3
2018-May-21 16:29N 34°23' W 119°30'0 0.0
2018-May-21 15:58N 34°23' W 119°30'612.4
2018-May-21 15:30N 34°20' W 119°36'2 3.9
2018-May-21 15:00N 34°18' W 119°36'2 4.9
2018-May-21 14:30N 34°20' W 119°37'1 1.8
2018-May-21 14:00N 34°20' W 119°36'611.4
2018-May-21 13:30N 34°23' W 119°30'0 0.0
2018-May-21 13:00N 34°23' W 119°30'1 1.5
2018-May-21 12:30N 34°22' W 119°30'0 0.0
2018-May-21 11:59N 34°22' W 119°30'0 0.0
2018-May-21 11:30N 34°23' W 119°30'0 0.0
2018-May-21 11:00N 34°22' W 119°30'0 0.0
2018-May-21 10:26N 34°22' W 119°30'0 0.0
2018-May-21 09:58N 34°23' W 119°30'0 0.0
2018-May-21 09:30N 34°23' W 119°30'0 0.0
2018-May-21 09:00N 34°23' W 119°30'0 0.0
2018-May-21 08:29N 34°23' W 119°30'0 0.0
2018-May-21 08:00N 34°23' W 119°30'0 0.0
2018-May-21 07:29N 34°23' W 119°30'0 0.0
2018-May-21 07:00N 34°23' W 119°30'0 0.0
2018-May-21 06:29N 34°23' W 119°30'0 0.0
2018-May-21 06:00N 34°23' W 119°30'0 0.0
2018-May-21 05:30N 34°23' W 119°30'0 0.0
2018-May-21 05:00N 34°22' W 119°30'0 0.0
2018-May-21 04:30N 34°23' W 119°30'0 0.0
2018-May-21 04:00N 34°22' W 119°30'0 0.0
2018-May-21 03:30N 34°23' W 119°30'0 0.0
2018-May-21 03:01N 34°22' W 119°30'0 0.0
2018-May-21 02:29N 34°22' W 119°30'3 6.0
2018-May-21 02:00N 34°21' W 119°32'2 4.4
2018-May-21 01:29N 34°20' W 119°35'3 5.8
2018-May-21 01:00N 34°21' W 119°32'1 1.0
2018-May-21 00:29N 34°21' W 119°33'3 6.0
2018-May-20 23:58N 34°20' W 119°36'0 0.0
2018-May-20 23:29N 34°20' W 119°36'0 0.0
2018-May-20 22:58N 34°20' W 119°36'0 0.0
2018-May-20 22:30N 34°20' W 119°36'0 0.3
2018-May-20 22:00N 34°20' W 119°36'2 4.1
2018-May-20 21:29N 34°20' W 119°34'0 0.0
2018-May-20 21:00N 34°20' W 119°34'2 4.9
2018-May-20 20:31N 34°20' W 119°37'0 0.3
2018-May-20 20:00N 34°20' W 119°37'0 0.0
2018-May-20 19:30N 34°20' W 119°37'0 0.8
2018-May-20 19:00N 34°20' W 119°37'0 0.0
2018-May-20 18:29N 34°20' W 119°37'0 0.1
2018-May-20 18:00N 34°20' W 119°37'0 0.0
2018-May-20 17:29N 34°20' W 119°37'0 0.0
2018-May-20 17:00N 34°20' W 119°37'0 0.0
2018-May-20 16:30N 34°20' W 119°37'510.7
2018-May-20 16:00N 34°20' W 119°31'0 0.4
2018-May-20 15:30N 34°20' W 119°31'2 3.3
2018-May-20 15:00N 34°22' W 119°32'2 4.3
2018-May-20 14:30N 34°20' W 119°33'3 6.7
2018-May-20 14:01N 34°20' W 119°37'611.9
2018-May-20 13:30N 34°23' W 119°31'0 0.9
2018-May-20 12:57N 34°23' W 119°31'1 1.4
2018-May-20 12:29N 34°22' W 119°30'0 0.0
2018-May-20 11:58N 34°23' W 119°30'0 0.0
2018-May-20 11:29N 34°23' W 119°30'0 0.0
2018-May-20 11:00N 34°23' W 119°30'0 0.0
2018-May-20 10:28N 34°23' W 119°30'0 0.0
2018-May-20 10:00N 34°22' W 119°30'0 0.0
2018-May-20 09:30N 34°22' W 119°30'0 0.0
2018-May-20 09:00N 34°23' W 119°30'0 0.0
2018-May-20 08:28N 34°23' W 119°30'0 0.0
2018-May-20 08:00N 34°23' W 119°30'0 0.0
2018-May-20 07:30N 34°23' W 119°30'0 0.0
2018-May-20 07:00N 34°23' W 119°30'0 0.0
2018-May-20 06:30N 34°23' W 119°30'0 0.0
2018-May-20 05:58N 34°22' W 119°30'0 0.0
2018-May-20 05:29N 34°22' W 119°30'0 0.0
2018-May-20 04:54N 34°23' W 119°30'0 0.0
2018-May-20 04:27N 34°23' W 119°30'0 0.0
2018-May-20 03:59N 34°23' W 119°30'0 0.0
2018-May-20 03:30N 34°23' W 119°30'0 0.0
2018-May-20 02:57N 34°22' W 119°30'4 9.2
2018-May-20 02:29N 34°20' W 119°34'3 5.5
2018-May-20 02:00N 34°20' W 119°37'1 1.9
2018-May-20 01:30N 34°20' W 119°36'510.6
2018-May-20 01:00N 34°23' W 119°31'4 8.3
2018-May-20 00:30N 34°20' W 119°35'1 2.7
2018-May-19 23:58N 34°20' W 119°36'0 0.0
2018-May-19 23:30N 34°20' W 119°36'0 0.0
2018-May-19 23:00N 34°20' W 119°36'0 0.0
2018-May-19 22:26N 34°20' W 119°36'0 0.0
2018-May-19 21:58N 34°20' W 119°36'0 0.0
2018-May-19 21:30N 34°20' W 119°36'0 0.0
2018-May-19 21:00N 34°20' W 119°36'3 6.0
2018-May-19 20:30N 34°23' W 119°37'4 7.7
2018-May-19 20:01N 34°24' W 119°42'0 0.0
2018-May-19 19:30N 34°24' W 119°42'0 0.0
2018-May-19 18:57N 34°24' W 119°42'0 0.0
2018-May-19 18:30N 34°24' W 119°42'5 9.6
2018-May-19 18:00N 34°21' W 119°37'1 3.0
2018-May-19 17:30N 34°20' W 119°36'0 0.0
2018-May-19 16:59N 34°20' W 119°36'0 0.0
2018-May-19 16:30N 34°20' W 119°36'0 0.0
2018-May-19 15:59N 34°20' W 119°36'0 0.9
2018-May-19 15:29N 34°20' W 119°37'612.4
2018-May-19 15:00N 34°23' W 119°31'610.9
2018-May-19 14:30N 34°20' W 119°36'0 0.2
2018-May-19 13:59N 34°20' W 119°36'612.0
2018-May-19 13:30N 34°23' W 119°30'0 0.7
2018-May-19 12:59N 34°23' W 119°31'1 1.5
2018-May-19 12:26N 34°22' W 119°30'0 0.0
2018-May-19 11:57N 34°22' W 119°30'0 0.0
2018-May-19 11:29N 34°22' W 119°30'0 0.0
2018-May-19 10:57N 34°22' W 119°30'0 0.0
2018-May-19 10:29N 34°22' W 119°30'0 0.0
2018-May-19 09:59N 34°22' W 119°30'0 0.0
2018-May-19 09:29N 34°22' W 119°30'0 0.0
2018-May-19 08:58N 34°22' W 119°30'0 0.0
2018-May-19 08:23N 34°22' W 119°30'0 0.0
2018-May-19 08:00N 34°22' W 119°30'0 0.0
2018-May-19 07:27N 34°22' W 119°30'0 0.0
2018-May-19 06:58N 34°22' W 119°30'0 0.0
2018-May-19 06:30N 34°22' W 119°30'0 0.0
2018-May-19 05:58N 34°22' W 119°30'0 0.0
2018-May-19 05:28N 34°22' W 119°30'0 0.0
2018-May-19 04:59N 34°22' W 119°30'0 0.0
2018-May-19 04:30N 34°22' W 119°30'0 0.0
2018-May-19 03:58N 34°22' W 119°30'0 0.0
2018-May-19 03:30N 34°22' W 119°30'0 0.0
2018-May-19 02:59N 34°22' W 119°30'0 0.0
2018-May-19 02:29N 34°22' W 119°30'3 6.9
2018-May-19 02:00N 34°20' W 119°33'4 8.4
2018-May-19 01:30N 34°20' W 119°38'714.0
2018-May-19 01:00N 34°23' W 119°31'1 1.4
2018-May-19 00:28N 34°23' W 119°30'0 0.0
2018-May-19 00:00N 34°23' W 119°30'0 0.0
2018-May-18 23:29N 34°23' W 119°30'0 0.1
2018-May-18 23:00N 34°23' W 119°30'2 3.4
2018-May-18 22:28N 34°22' W 119°32'510.0
2018-May-18 21:59N 34°20' W 119°37'1 2.0
2018-May-18 21:30N 34°20' W 119°36'0 0.0
2018-May-18 21:00N 34°20' W 119°36'0 0.0
2018-May-18 20:30N 34°20' W 119°36'4 7.5
2018-May-18 20:00N 34°21' W 119°32'1 1.4
2018-May-18 19:30N 34°22' W 119°32'5 9.8
2018-May-18 19:00N 34°20' W 119°37'1 1.5
2018-May-18 18:29N 34°20' W 119°38'0 0.0
2018-May-18 18:00N 34°20' W 119°38'0 0.0
2018-May-18 17:30N 34°20' W 119°38'0 0.1
2018-May-18 17:00N 34°20' W 119°38'0 0.9
2018-May-18 16:29N 34°20' W 119°37'1 2.1
2018-May-18 15:58N 34°20' W 119°36'610.1
2018-May-18 15:25N 34°23' W 119°30'1 2.6
2018-May-18 14:59N 34°22' W 119°31'4 9.0
2018-May-18 14:30N 34°20' W 119°36'1 1.1
2018-May-18 14:00N 34°20' W 119°37'610.9
2018-May-18 13:28N 34°23' W 119°30'0 0.0
2018-May-18 12:57N 34°23' W 119°30'1 1.4
2018-May-18 12:27N 34°23' W 119°30'0 0.0
2018-May-18 11:59N 34°23' W 119°30'0 0.0
2018-May-18 11:30N 34°23' W 119°30'0 0.0
2018-May-18 11:00N 34°23' W 119°30'1 1.4
2018-May-18 10:30N 34°23' W 119°31'611.5
2018-May-18 10:00N 34°20' W 119°37'0 0.8
2018-May-18 09:30N 34°20' W 119°36'0 0.0
2018-May-18 08:58N 34°20' W 119°36'0 0.0
2018-May-18 08:29N 34°20' W 119°36'0 0.0
2018-May-18 08:00N 34°20' W 119°36'0 0.0
2018-May-18 07:30N 34°20' W 119°36'0 0.0
2018-May-18 06:59N 34°20' W 119°36'0 0.0
2018-May-18 06:30N 34°20' W 119°36'0 0.1
2018-May-18 05:58N 34°20' W 119°36'0 0.0
2018-May-18 05:29N 34°20' W 119°36'0 0.0
2018-May-18 05:00N 34°20' W 119°36'0 0.0
2018-May-18 04:30N 34°20' W 119°36'0 0.0
2018-May-18 04:00N 34°20' W 119°36'0 0.0
2018-May-18 03:26N 34°20' W 119°36'1 3.4
2018-May-18 03:00N 34°20' W 119°34'2 4.6
2018-May-18 02:29N 34°21' W 119°32'4 8.5
2018-May-18 02:00N 34°20' W 119°37'511.0
2018-May-18 01:30N 34°22' W 119°31'0 1.0
2018-May-18 01:01N 34°23' W 119°31'1 1.6
2018-May-18 00:29N 34°23' W 119°30'0 0.0
2018-May-17 23:58N 34°23' W 119°30'1 1.5
2018-May-17 23:28N 34°23' W 119°30'0 0.0
2018-May-17 22:55N 34°23' W 119°30'410.8
2018-May-17 22:30N 34°20' W 119°35'2 3.9
2018-May-17 22:00N 34°20' W 119°37'1 1.5
2018-May-17 21:30N 34°20' W 119°38'0 0.7
2018-May-17 20:58N 34°20' W 119°37'0 1.0
2018-May-17 20:31N 34°20' W 119°37'0 0.2
2018-May-17 20:00N 34°20' W 119°37'0 0.9
2018-May-17 19:31N 34°20' W 119°37'0 0.0
2018-May-17 19:00N 34°20' W 119°37'4 7.5
2018-May-17 18:30N 34°20' W 119°33'1 1.4
2018-May-17 18:00N 34°20' W 119°34'2 4.3
2018-May-17 17:30N 34°20' W 119°36'1 2.8
2018-May-17 17:00N 34°20' W 119°38'3 6.9
2018-May-17 16:30N 34°20' W 119°34'3 5.9
2018-May-17 16:00N 34°22' W 119°31'1 2.0
2018-May-17 15:27N 34°23' W 119°30'0 0.0
2018-May-17 14:59N 34°23' W 119°30'612.5
2018-May-17 14:30N 34°20' W 119°36'0 0.5
2018-May-17 13:58N 34°20' W 119°36'612.0
2018-May-17 13:30N 34°23' W 119°30'0 0.8
2018-May-17 13:00N 34°23' W 119°31'0 0.6
2018-May-17 12:30N 34°23' W 119°31'611.6
2018-May-17 12:00N 34°20' W 119°36'2 3.8
2018-May-17 11:26N 34°20' W 119°34'0 0.0
2018-May-17 11:00N 34°20' W 119°34'0 0.0
2018-May-17 10:30N 34°20' W 119°34'0 0.0
2018-May-17 10:00N 34°20' W 119°34'0 0.0
2018-May-17 09:26N 34°20' W 119°34'0 0.0
2018-May-17 08:59N 34°20' W 119°34'0 0.0
2018-May-17 08:29N 34°20' W 119°34'0 0.0
2018-May-17 07:59N 34°20' W 119°34'0 0.0
2018-May-17 07:30N 34°20' W 119°34'0 0.0
2018-May-17 07:00N 34°20' W 119°34'0 0.0
2018-May-17 06:30N 34°20' W 119°34'0 0.0
2018-May-17 05:59N 34°20' W 119°34'3 7.2
2018-May-17 05:30N 34°20' W 119°38'1 1.9
2018-May-17 05:00N 34°20' W 119°37'0 0.9
2018-May-17 04:30N 34°20' W 119°37'0 0.9
2018-May-17 04:00N 34°20' W 119°38'3 6.9
2018-May-17 03:30N 34°20' W 119°34'4 7.8
2018-May-17 03:00N 34°23' W 119°31'611.1
2018-May-17 02:30N 34°20' W 119°36'0 0.1
2018-May-17 01:58N 34°20' W 119°36'511.4
2018-May-17 01:30N 34°23' W 119°31'0 0.1
2018-May-17 01:00N 34°23' W 119°31'1 1.4
2018-May-17 00:30N 34°22' W 119°30'0 0.0
2018-May-17 00:00N 34°22' W 119°30'1 1.5
2018-May-16 23:30N 34°23' W 119°30'1 1.2
2018-May-16 23:00N 34°23' W 119°31'611.2
2018-May-16 22:31N 34°20' W 119°37'2 4.6
2018-May-16 21:59N 34°18' W 119°36'2 4.5
2018-May-16 21:29N 34°20' W 119°36'612.6
2018-May-16 21:00N 34°24' W 119°41'0 0.2
2018-May-16 20:29N 34°24' W 119°42'0 0.0
2018-May-16 20:00N 34°24' W 119°42'4 8.1
2018-May-16 19:30N 34°22' W 119°37'2 4.9
2018-May-16 19:00N 34°20' W 119°37'0 0.3
2018-May-16 18:28N 34°20' W 119°37'0 0.0
2018-May-16 18:01N 34°20' W 119°37'1 1.8
2018-May-16 17:30N 34°20' W 119°38'0 0.0
2018-May-16 17:00N 34°20' W 119°38'0 0.9
2018-May-16 16:30N 34°20' W 119°37'0 0.9
2018-May-16 16:00N 34°20' W 119°38'3 5.7
2018-May-16 15:30N 34°20' W 119°34'2 4.1
2018-May-16 15:01N 34°21' W 119°32'4 7.1
2018-May-16 14:30N 34°19' W 119°36'1 1.4
2018-May-16 14:00N 34°20' W 119°36'610.4
2018-May-16 13:27N 34°23' W 119°30'0 0.0
2018-May-16 12:56N 34°23' W 119°30'1 1.7
2018-May-16 12:30N 34°22' W 119°30'0 0.0
2018-May-16 12:00N 34°22' W 119°30'0 0.0
2018-May-16 11:30N 34°22' W 119°30'0 0.0
2018-May-16 11:00N 34°22' W 119°30'0 0.0
2018-May-16 10:30N 34°22' W 119°30'0 0.0
2018-May-16 09:59N 34°22' W 119°30'0 0.0
2018-May-16 09:30N 34°22' W 119°30'0 0.0
2018-May-16 08:54N 34°23' W 119°30'0 0.0
2018-May-16 08:29N 34°22' W 119°30'0 0.0
2018-May-16 08:00N 34°22' W 119°30'0 0.0
2018-May-16 07:29N 34°22' W 119°30'0 0.0
2018-May-16 07:00N 34°22' W 119°30'0 0.0
2018-May-16 06:31N 34°22' W 119°30'0 0.0
2018-May-16 06:00N 34°22' W 119°30'0 0.0
2018-May-16 05:29N 34°22' W 119°30'0 0.0
2018-May-16 04:57N 34°22' W 119°30'0 0.0
2018-May-16 04:28N 34°22' W 119°30'0 0.0
2018-May-16 03:52N 34°22' W 119°30'0 0.0
2018-May-16 03:30N 34°22' W 119°30'0 0.0
2018-May-16 02:57N 34°22' W 119°30'1 2.9
2018-May-16 02:30N 34°22' W 119°31'511.1
2018-May-16 02:00N 34°20' W 119°38'712.8
2018-May-16 01:29N 34°23' W 119°30'0 0.0
2018-May-16 01:00N 34°23' W 119°30'0 0.2
2018-May-16 00:27N 34°23' W 119°31'0 0.7
2018-May-16 00:00N 34°23' W 119°31'0 0.3
2018-May-15 23:27N 34°23' W 119°31'0 0.8
2018-May-15 22:59N 34°23' W 119°30'612.2
2018-May-15 22:30N 34°20' W 119°36'0 0.4
2018-May-15 22:00N 34°20' W 119°36'1 2.9
2018-May-15 21:31N 34°20' W 119°38'1 2.7
2018-May-15 21:00N 34°20' W 119°36'5 9.9
2018-May-15 20:29N 34°22' W 119°31'1 1.4
2018-May-15 19:58N 34°23' W 119°30'0 0.0
2018-May-15 19:29N 34°23' W 119°30'0 0.6
2018-May-15 19:00N 34°23' W 119°30'2 4.2
2018-May-15 18:30N 34°21' W 119°32'4 7.0
2018-May-15 17:57N 34°20' W 119°36'1 2.4
2018-May-15 17:30N 34°20' W 119°38'3 6.5
2018-May-15 17:00N 34°17' W 119°35'4 7.1
2018-May-15 16:30N 34°20' W 119°33'0 0.7
2018-May-15 15:58N 34°20' W 119°33'3 7.2
2018-May-15 15:30N 34°23' W 119°30'3 6.6
2018-May-15 15:00N 34°20' W 119°33'3 6.2
2018-May-15 14:31N 34°19' W 119°36'1 1.9
2018-May-15 13:58N 34°20' W 119°36'512.0
2018-May-15 13:30N 34°23' W 119°31'0 0.7
2018-May-15 13:00N 34°23' W 119°31'0 0.9
2018-May-15 12:31N 34°23' W 119°30'713.0
2018-May-15 12:00N 34°20' W 119°38'3 6.4
2018-May-15 11:30N 34°20' W 119°34'0 0.0
2018-May-15 11:00N 34°20' W 119°34'0 0.0
2018-May-15 10:30N 34°20' W 119°34'0 0.0
2018-May-15 10:00N 34°20' W 119°34'0 0.0
2018-May-15 09:29N 34°20' W 119°34'0 0.0
2018-May-15 08:59N 34°20' W 119°34'0 0.0
2018-May-15 08:30N 34°20' W 119°34'0 0.0
2018-May-15 08:00N 34°20' W 119°34'0 0.0
2018-May-15 07:30N 34°20' W 119°34'0 0.0
2018-May-15 06:59N 34°20' W 119°34'0 0.0
2018-May-15 06:27N 34°20' W 119°34'0 0.0
2018-May-15 06:01N 34°20' W 119°34'0 0.0
2018-May-15 05:29N 34°20' W 119°34'0 0.0
2018-May-15 05:01N 34°20' W 119°34'0 0.0
2018-May-15 04:28N 34°20' W 119°34'0 0.0
2018-May-15 04:00N 34°20' W 119°34'0 0.0
2018-May-15 03:29N 34°20' W 119°34'2 4.7
2018-May-15 03:00N 34°20' W 119°37'510.0
2018-May-15 02:30N 34°22' W 119°31'612.4
2018-May-15 02:00N 34°20' W 119°38'713.9
2018-May-15 01:30N 34°23' W 119°30'1 1.5
2018-May-15 01:00N 34°22' W 119°30'0 0.0
2018-May-15 00:28N 34°23' W 119°30'0 0.0
2018-May-15 00:00N 34°23' W 119°30'0 0.0
2018-May-14 23:30N 34°23' W 119°30'1 1.4
2018-May-14 22:58N 34°23' W 119°30'511.6
2018-May-14 22:30N 34°20' W 119°36'1 1.8
2018-May-14 22:00N 34°20' W 119°35'1 1.5
2018-May-14 21:30N 34°20' W 119°34'1 0.9
2018-May-14 20:58N 34°20' W 119°34'1 1.9
2018-May-14 20:30N 34°20' W 119°35'2 4.1
2018-May-14 20:00N 34°20' W 119°37'4 8.8
2018-May-14 19:30N 34°24' W 119°40'1 2.7
2018-May-14 19:00N 34°24' W 119°42'0 0.0
2018-May-14 18:29N 34°24' W 119°42'2 4.8
2018-May-14 18:00N 34°24' W 119°39'4 8.8
2018-May-14 17:30N 34°20' W 119°36'3 4.7
2018-May-14 16:55N 34°17' W 119°35'3 7.2
2018-May-14 16:30N 34°20' W 119°37'0 0.6
2018-May-14 16:01N 34°20' W 119°36'611.4
2018-May-14 15:30N 34°23' W 119°30'3 6.9
2018-May-14 15:00N 34°20' W 119°33'3 6.2
2018-May-14 14:30N 34°18' W 119°36'2 3.4
2018-May-14 14:00N 34°20' W 119°36'611.5
2018-May-14 13:30N 34°23' W 119°30'0 0.9
2018-May-14 13:00N 34°23' W 119°31'1 1.7
2018-May-14 12:30N 34°23' W 119°30'0 0.0
2018-May-14 11:53N 34°23' W 119°30'0 0.0
2018-May-14 11:29N 34°22' W 119°30'0 0.0
2018-May-14 10:59N 34°22' W 119°30'0 0.0
2018-May-14 10:29N 34°23' W 119°30'0 0.0
2018-May-14 09:58N 34°22' W 119°30'0 0.0
2018-May-14 09:29N 34°22' W 119°30'0 0.0
2018-May-14 09:00N 34°22' W 119°30'0 0.0
2018-May-14 08:28N 34°22' W 119°30'1 1.7
2018-May-14 07:59N 34°23' W 119°31'510.7
2018-May-14 07:30N 34°20' W 119°36'611.5
2018-May-14 07:00N 34°22' W 119°30'0 0.0
2018-May-14 06:26N 34°22' W 119°30'0 0.0
2018-May-14 05:57N 34°22' W 119°30'0 0.0
2018-May-14 05:27N 34°22' W 119°30'0 0.0
2018-May-14 04:59N 34°22' W 119°30'0 0.0
2018-May-14 04:30N 34°22' W 119°30'0 0.0
2018-May-14 04:00N 34°22' W 119°30'0 0.0
2018-May-14 03:30N 34°22' W 119°30'0 0.0
2018-May-14 02:58N 34°22' W 119°30'0 0.1
2018-May-14 02:30N 34°22' W 119°30'612.0
2018-May-14 02:00N 34°20' W 119°36'611.1
2018-May-14 01:30N 34°23' W 119°31'2 3.2
2018-May-14 01:00N 34°22' W 119°32'2 3.2
2018-May-14 00:29N 34°20' W 119°33'3 5.4
2018-May-14 00:00N 34°20' W 119°36'2 4.7
2018-May-13 23:29N 34°20' W 119°33'1 1.8
2018-May-13 22:58N 34°20' W 119°34'1 1.9
2018-May-13 22:30N 34°20' W 119°35'2 3.2
2018-May-13 22:00N 34°20' W 119°37'1 1.8
2018-May-13 21:30N 34°20' W 119°36'2 4.2
2018-May-13 21:00N 34°20' W 119°34'0 0.0
2018-May-13 20:30N 34°20' W 119°34'0 0.0
2018-May-13 19:58N 34°20' W 119°34'0 0.0
2018-May-13 19:30N 34°20' W 119°34'0 0.0
2018-May-13 18:59N 34°20' W 119°34'0 0.0
2018-May-13 18:30N 34°20' W 119°34'0 0.0
2018-May-13 17:59N 34°20' W 119°34'0 0.0
2018-May-13 17:29N 34°20' W 119°34'0 0.0
2018-May-13 17:00N 34°20' W 119°34'0 0.0
2018-May-13 16:28N 34°20' W 119°34'2 3.6
2018-May-13 16:00N 34°20' W 119°36'814.9
2018-May-13 15:29N 34°21' W 119°26'5 9.9
2018-May-13 15:00N 34°21' W 119°32'2 3.0
2018-May-13 14:30N 34°20' W 119°34'4 7.2
2018-May-13 14:00N 34°20' W 119°38'611.8
2018-May-13 13:30N 34°22' W 119°31'1 1.9
2018-May-13 13:00N 34°23' W 119°31'1 1.2
2018-May-13 12:29N 34°23' W 119°30'0 0.0
2018-May-13 11:59N 34°22' W 119°30'1 1.5
2018-May-13 11:30N 34°23' W 119°31'1 1.4
2018-May-13 10:58N 34°23' W 119°30'0 0.0
2018-May-13 10:30N 34°23' W 119°30'0 0.0
2018-May-13 10:00N 34°23' W 119°30'0 0.0
2018-May-13 09:30N 34°23' W 119°30'0 0.0
2018-May-13 08:57N 34°23' W 119°30'0 0.0
2018-May-13 08:24N 34°23' W 119°30'0 0.0
2018-May-13 08:00N 34°23' W 119°30'0 0.0
2018-May-13 07:30N 34°23' W 119°30'0 0.0
2018-May-13 06:58N 34°23' W 119°30'0 0.0
2018-May-13 06:26N 34°23' W 119°30'0 0.0
2018-May-13 06:00N 34°23' W 119°30'0 0.0
2018-May-13 05:28N 34°23' W 119°30'0 0.0
2018-May-13 05:00N 34°23' W 119°30'0 0.0
2018-May-13 04:30N 34°23' W 119°30'0 0.0
2018-May-13 03:59N 34°23' W 119°30'0 0.0
2018-May-13 03:27N 34°23' W 119°30'0 0.0
2018-May-13 02:59N 34°23' W 119°30'0 0.0
2018-May-13 02:30N 34°23' W 119°30'4 7.5
2018-May-13 01:59N 34°20' W 119°34'3 6.9
2018-May-13 01:30N 34°20' W 119°38'4 7.5
2018-May-13 01:00N 34°20' W 119°33'3 6.2
2018-May-13 00:29N 34°23' W 119°31'0 0.7
2018-May-13 00:00N 34°23' W 119°30'3 6.7
2018-May-12 23:30N 34°20' W 119°33'3 5.8
2018-May-12 23:00N 34°20' W 119°36'2 4.0
2018-May-12 22:30N 34°20' W 119°34'3 6.9
2018-May-12 22:00N 34°20' W 119°38'2 4.7
2018-May-12 21:30N 34°22' W 119°37'4 7.9
2018-May-12 20:57N 34°24' W 119°42'0 0.0
2018-May-12 20:29N 34°24' W 119°42'0 0.0
2018-May-12 19:44N 34°24' W 119°42'0 0.0
2018-May-12 19:30N 34°24' W 119°42'0 1.0
2018-May-12 19:00N 34°24' W 119°41'713.9
2018-May-12 18:30N 34°20' W 119°34'0 0.4
2018-May-12 18:00N 34°20' W 119°34'0 0.0
2018-May-12 17:28N 34°20' W 119°34'0 0.0
2018-May-12 17:00N 34°20' W 119°34'0 0.0
2018-May-12 16:28N 34°20' W 119°34'0 0.0
2018-May-12 16:00N 34°20' W 119°34'0 0.0
2018-May-12 15:30N 34°20' W 119°34'2 4.2
2018-May-12 15:00N 34°20' W 119°36'1 1.8
2018-May-12 14:30N 34°20' W 119°37'0 0.9
2018-May-12 14:00N 34°20' W 119°38'612.6
2018-May-12 13:30N 34°22' W 119°31'0 0.6
2018-May-12 12:57N 34°23' W 119°31'1 1.6
2018-May-12 12:28N 34°22' W 119°30'0 0.0
2018-May-12 12:00N 34°22' W 119°30'0 0.0
2018-May-12 11:28N 34°22' W 119°30'0 0.0
2018-May-12 10:59N 34°22' W 119°30'0 0.0
2018-May-12 10:30N 34°22' W 119°30'0 0.0
2018-May-12 09:58N 34°22' W 119°30'0 0.0
2018-May-12 09:30N 34°22' W 119°30'0 0.0
2018-May-12 09:00N 34°22' W 119°30'0 0.0
2018-May-12 08:23N 34°22' W 119°30'0 0.0
2018-May-12 08:00N 34°22' W 119°30'0 0.0
2018-May-12 07:29N 34°22' W 119°30'0 0.0
2018-May-12 07:00N 34°22' W 119°30'0 0.0
2018-May-12 06:29N 34°22' W 119°30'0 0.0
2018-May-12 05:59N 34°22' W 119°30'0 0.0
2018-May-12 05:28N 34°22' W 119°30'0 0.0
2018-May-12 04:59N 34°22' W 119°30'0 0.0
2018-May-12 04:29N 34°22' W 119°30'  

Dump ship's entire track history